Alviso, California
Current Conditions -  °F | °C
As of 1:56 AM on Thursday 23 Oct 2014 (Local Time) from KNUQ Reporting Station
Clear Clear  
Wind Chill: 59°   Ceiling: Unl
Heat Index: 59°   Visibility: 10mi
Dew Point: 55°   Wind: 3mph
Humidity: 87%   Direction: 170°S
Pressure: 30.04"   Gusts: NA
Location:  37.43°N, 121.97°W
Report Text: KNUQ 230856Z AUTO 17003KT 10SM CLR 15/13 A3004 RMK AO2 SLP176 T01500128 56005 TSNO
Loading
Personal Weather Stations






























Interactive Weather Map
Tropical Storm Tracking
New forecast layout! Learn more

10-Day Weather Forecast

Advertisements
Track Severe Weather on mobile